Aviation Digital Data Service (ADDS)

Output produced by METARs form (0308 UTC 22 February 2019)
found at http://www.aviationweather.gov/metar/data/
 
Forecast for: LERI (ALCANTARILLA(SP-, ES)
Text: TAF LERI 220200Z 2203/2212 29004KT 9999 FEW025
Forecast period: 0300 to 1200 UTC 22 February 2019
Forecast type: FROM: standard forecast or significant change
Winds: from the WNW (290 degrees) at 5 MPH (4 knots; 2.1 m/s)
Visibility: 6 or more miles 10+ km)
Ceiling: at least 12,000 feet AGL
Clouds: few clouds at 2500 feet AGL
Weather: no significant weather forecast for this period
Text: PROB30
Forecast period: 0300 to 0900 UTC 22 February 2019
Forecast type: TEMPORARY: The following changes expected for less than half the time period
Visibility: missing
Ceiling: 1000 feet AGL
Clouds: broken clouds at 1000 feet AGL
Weather: no significant weather forecast for this period